Time;durP1;ratioP1;P1;durP2;ratioP2;P2;SDS_P1;SDS_P2;PMS_P1;PMS_P2;Temp;Humidity;BMP_temperature;BMP_pressure;BME280_temperature;BME280_humidity;BME280_pressure;Samples;Min_cycle;Max_cycle;Signal;HPM_P1;HPM_P2
2022/10/02 00:00:16;;;;;;;0.82;0.38;;;13.60;99.90;;;;;;4985201;28;20019;-67
2022/10/02 00:02:50;;;;;;;3.22;0.80;;;13.60;99.90;;;;;;4987734;28;20106;-69
2022/10/02 00:05:37;;;;;;;2.17;0.43;;;13.70;99.90;;;;;;4985988;28;20509;-68
2022/10/02 00:08:13;;;;;;;0.75;0.25;;;13.80;99.90;;;;;;4986014;28;20045;-69
2022/10/02 00:11:18;;;;;;;2.92;0.30;;;13.70;99.90;;;;;;4986826;28;20025;-67
2022/10/02 00:13:59;;;;;;;0.55;0.30;;;13.70;99.90;;;;;;4946317;29;20477;-70
2022/10/02 00:16:35;;;;;;;2.00;0.30;;;13.70;99.90;;;;;;4984022;28;20039;-70
2022/10/02 00:19:03;;;;;;;2.60;0.25;;;13.80;99.90;;;;;;4985735;28;20029;-73
2022/10/02 00:21:37;;;;;;;1.42;0.30;;;13.90;99.90;;;;;;4986090;28;20027;-72
2022/10/02 00:24:07;;;;;;;1.45;0.52;;;13.90;99.90;;;;;;4984357;28;20038;-70
2022/10/02 00:27:02;;;;;;;3.15;0.63;;;14.00;99.90;;;;;;4986843;28;20385;-69
2022/10/02 00:29:52;;;;;;;2.38;0.60;;;13.90;99.90;;;;;;4986382;28;20058;-70
2022/10/02 00:32:46;;;;;;;2.33;0.47;;;13.90;99.90;;;;;;4987393;28;20026;-71
2022/10/02 00:35:40;;;;;;;2.70;0.20;;;13.90;99.90;;;;;;4986623;28;20424;-70
2022/10/02 00:38:17;;;;;;;2.25;0.35;;;14.00;99.90;;;;;;4987378;28;20021;-72
2022/10/02 00:41:10;;;;;;;0.90;0.30;;;14.00;99.90;;;;;;4986684;28;20022;-72
2022/10/02 00:43:38;;;;;;;3.67;0.70;;;14.10;99.90;;;;;;4985353;28;20472;-74
2022/10/02 00:46:23;;;;;;;1.73;0.50;;;14.30;99.90;;;;;;4985812;28;20022;-77
2022/10/02 00:49:08;;;;;;;3.80;0.50;;;14.40;99.90;;;;;;4986354;28;20033;-76
2022/10/02 00:51:36;;;;;;;2.90;0.50;;;14.40;99.90;;;;;;4986746;28;20491;-76
2022/10/02 00:54:29;;;;;;;3.85;0.60;;;14.40;99.90;;;;;;4984845;28;20332;-70
2022/10/02 00:57:04;;;;;;;3.55;0.32;;;14.50;99.90;;;;;;4985270;28;20487;-71
2022/10/02 00:59:37;;;;;;;;;;;14.40;99.90;;;;;;4988813;28;20034;-71
2022/10/02 01:02:25;;;;;;;0.65;0.28;;;14.40;99.90;;;;;;4986250;28;19905;-73
2022/10/02 01:04:53;;;;;;;1.05;0.32;;;14.30;99.90;;;;;;4986026;28;20065;-72
2022/10/02 01:07:20;;;;;;;0.38;0.35;;;14.20;99.90;;;;;;4984446;28;20015;-77
2022/10/02 01:09:48;;;;;;;1.67;0.32;;;14.20;99.90;;;;;;4987092;28;20038;-73
2022/10/02 01:12:16;;;;;;;0.30;0.30;;;14.30;99.90;;;;;;4983134;28;20121;-67
2022/10/02 01:14:43;;;;;;;1.42;0.47;;;14.50;99.90;;;;;;4986082;28;20027;-74
2022/10/02 01:17:33;;;;;;;3.88;0.40;;;14.60;99.90;;;;;;4985146;28;20357;-72
2022/10/02 01:20:04;;;;;;;0.65;0.20;;;14.80;99.90;;;;;;4986434;28;20018;-71
2022/10/02 01:22:54;;;;;;;1.17;0.30;;;14.90;99.90;;;;;;4985355;28;20034;-69
2022/10/02 01:25:22;;;;;;;1.63;0.60;;;15.00;99.90;;;;;;4986480;28;20388;-75
2022/10/02 01:27:52;;;;;;;2.42;0.77;;;14.90;99.90;;;;;;4984649;28;20045;-76
2022/10/02 01:30:21;;;;;;;5.82;0.45;;;14.80;99.90;;;;;;4983882;28;20047;-71
2022/10/02 01:32:57;;;;;;;2.42;0.52;;;14.80;99.90;;;;;;4988131;28;20483;-78
2022/10/02 01:35:30;;;;;;;1.50;0.55;;;14.70;99.90;;;;;;4984985;28;20065;-78
2022/10/02 01:38:03;;;;;;;1.02;0.50;;;14.70;99.90;;;;;;4992484;28;20034;-77
2022/10/02 01:40:33;;;;;;;3.20;0.55;;;14.60;99.90;;;;;;4992750;28;20030;-69
2022/10/02 01:43:10;;;;;;;7.50;0.73;;;14.80;99.90;;;;;;4992984;28;20026;-71
2022/10/02 01:45:52;;;;;;;1.50;0.63;;;14.90;99.90;;;;;;4994000;28;20019;-69
2022/10/02 01:48:33;;;;;;;2.72;0.60;;;15.10;99.90;;;;;;4993665;28;20105;-77
2022/10/02 01:51:25;;;;;;;0.65;0.30;;;15.30;99.90;;;;;;4992940;28;20034;-76
2022/10/02 01:54:29;;;;;;;3.72;0.70;;;15.30;99.90;;;;;;4993351;28;20026;-70
2022/10/02 01:57:20;;;;;;;2.65;0.60;;;15.20;99.90;;;;;;4993573;28;20033;-70
2022/10/02 02:00:15;;;;;;;1.63;0.68;;;15.00;99.90;;;;;;4993726;28;20026;-75
2022/10/02 02:03:07;;;;;;;1.08;0.30;;;14.80;99.90;;;;;;4993350;28;20157;-77
2022/10/02 02:05:49;;;;;;;3.03;0.57;;;14.80;99.90;;;;;;4993477;28;20022;-70
2022/10/02 02:08:28;;;;;;;3.13;0.88;;;14.90;99.90;;;;;;4993484;28;20537;-69
2022/10/02 02:11:07;;;;;;;1.38;0.47;;;14.90;99.90;;;;;;4988456;28;20488;-77
2022/10/02 02:13:51;;;;;;;1.00;0.40;;;14.80;99.90;;;;;;4985189;28;20395;-71
2022/10/02 02:16:26;;;;;;;3.78;0.40;;;14.80;99.90;;;;;;4985584;28;20011;-77
2022/10/02 02:19:04;;;;;;;1.48;0.47;;;14.80;99.90;;;;;;4984775;28;20110;-71
2022/10/02 02:21:38;;;;;;;0.38;0.17;;;14.80;99.90;;;;;;4999506;28;20491;-71
2022/10/02 02:24:12;;;;;;;0.98;0.50;;;14.90;99.90;;;;;;4983518;28;20117;-70
2022/10/02 02:26:42;;;;;;;1.05;0.47;;;14.90;99.90;;;;;;4983382;28;20050;-70
2022/10/02 02:29:12;;;;;;;1.88;0.40;;;14.90;99.90;;;;;;4984620;28;20361;-68
2022/10/02 02:31:47;;;;;;;1.05;0.45;;;14.90;99.90;;;;;;4985021;28;20042;-69
2022/10/02 02:34:16;;;;;;;;;;;15.10;99.90;;;;;;4985155;28;20388;-71
2022/10/02 02:36:47;;;;;;;1.25;0.30;;;15.10;99.90;;;;;;4983094;28;19933;-69
2022/10/02 02:39:22;;;;;;;1.58;0.15;;;15.20;99.90;;;;;;4986248;28;20021;-70
2022/10/02 02:42:04;;;;;;;6.10;0.80;;;15.10;99.90;;;;;;4984327;28;20026;-68
2022/10/02 02:44:46;;;;;;;1.92;0.80;;;15.30;99.90;;;;;;4984153;28;20030;-69
2022/10/02 02:47:19;;;;;;;2.10;0.70;;;15.40;99.90;;;;;;4983841;28;20026;-69
2022/10/02 02:50:15;;;;;;;3.67;1.25;;;15.30;99.90;;;;;;4984923;28;20023;-68
2022/10/02 02:52:54;;;;;;;2.58;0.90;;;15.30;99.90;;;;;;4980777;28;20431;-72
2022/10/02 02:55:49;;;;;;;2.28;0.50;;;15.40;99.90;;;;;;4977388;28;20098;-70
2022/10/02 02:58:37;;;;;;;1.73;0.70;;;15.40;99.90;;;;;;4971197;28;20030;-68
2022/10/02 03:01:04;;;;;;;2.97;0.80;;;15.60;99.90;;;;;;4977339;28;20080;-69
2022/10/02 03:03:31;;;;;;;4.20;0.52;;;15.80;99.90;;;;;;4974642;28;20034;-72
2022/10/02 03:06:25;;;;;;;3.80;0.80;;;15.90;99.90;;;;;;4975044;28;20026;-71
2022/10/02 03:08:53;;;;;;;1.45;0.85;;;15.90;99.90;;;;;;4974636;28;20023;-77
2022/10/02 03:11:40;;;;;;;3.00;0.30;;;16.00;99.90;;;;;;4979682;28;20444;-69
2022/10/02 03:14:29;;;;;;;4.53;0.60;;;16.00;99.90;;;;;;4978298;28;20065;-71
2022/10/02 03:17:14;;;;;;;4.07;0.50;;;16.00;99.90;;;;;;4984412;28;20023;-73
2022/10/02 03:20:01;;;;;;;4.22;0.47;;;16.10;99.90;;;;;;4984759;28;20061;-73
2022/10/02 03:22:52;;;;;;;1.05;0.40;;;16.20;99.90;;;;;;4984195;28;20056;-71
2022/10/02 03:25:42;;;;;;;1.25;0.50;;;16.30;99.90;;;;;;4984791;28;20573;-71
2022/10/02 03:28:28;;;;;;;2.15;1.05;;;16.40;99.90;;;;;;4984031;28;20023;-71
2022/10/02 03:30:57;;;;;;;2.72;0.68;;;16.50;99.90;;;;;;4982458;28;20112;-72
2022/10/02 03:33:27;;;;;;;1.25;0.75;;;16.30;99.90;;;;;;4982752;28;20449;-70
2022/10/02 03:35:55;;;;;;;1.77;0.68;;;16.50;99.90;;;;;;4983194;28;20420;-74
2022/10/02 03:38:25;;;;;;;1.50;0.55;;;16.50;99.90;;;;;;4981839;28;20141;-71
2022/10/02 03:40:57;;;;;;;1.50;0.55;;;16.40;99.90;;;;;;4974246;28;20022;-76
2022/10/02 03:43:28;;;;;;;2.58;0.55;;;16.50;99.90;;;;;;4974366;28;20097;-72
2022/10/02 03:45:56;;;;;;;7.00;0.68;;;16.20;99.90;;;;;;4974418;28;20029;-71
2022/10/02 03:48:23;;;;;;;4.05;0.98;;;15.80;99.90;;;;;;4974451;28;20034;-71
2022/10/02 03:50:54;;;;;;;1.48;0.50;;;15.40;99.90;;;;;;4974216;28;20034;-72
2022/10/02 03:53:24;;;;;;;3.95;0.52;;;15.20;99.90;;;;;;4974180;28;20488;-72
2022/10/02 03:56:33;;;;;;;3.55;0.82;;;15.00;99.90;;;;;;4974228;28;20054;-76
2022/10/02 03:59:04;;;;;;;2.83;0.90;;;14.80;99.90;;;;;;4981536;28;20034;-70
2022/10/02 04:01:36;;;;;;;3.78;0.52;;;14.70;99.90;;;;;;4983378;28;20053;-71
2022/10/02 04:04:42;;;;;;;2.00;0.70;;;14.70;99.90;;;;;;4990618;28;20065;-71
2022/10/02 04:07:17;;;;;;;5.00;0.40;;;14.70;99.90;;;;;;4988675;28;20031;-70
2022/10/02 04:09:44;;;;;;;;;;;14.60;99.90;;;;;;4992530;28;20451;-71
2022/10/02 04:12:41;;;;;;;4.28;0.80;;;14.60;99.90;;;;;;4993279;28;19953;-71
2022/10/02 04:15:32;;;;;;;1.25;0.30;;;15.00;99.90;;;;;;4992621;28;20038;-71
2022/10/02 04:18:10;;;;;;;0.90;0.30;;;15.30;99.90;;;;;;4994695;28;20069;-71
2022/10/02 04:20:59;;;;;;;1.80;0.90;;;15.70;99.90;;;;;;4994625;28;20027;-71
2022/10/02 04:23:59;;;;;;;9.70;4.15;;;15.70;99.90;;;;;;4993402;28;20387;-71
2022/10/02 04:26:32;;;;;;;2.97;1.75;;;15.60;99.90;;;;;;4989003;28;20026;-71
2022/10/02 04:29:23;;;;;;;3.80;0.70;;;15.40;99.90;;;;;;4993138;28;20081;-70
2022/10/02 04:32:10;;;;;;;2.75;0.30;;;15.50;99.90;;;;;;4994023;28;20084;-71
2022/10/02 04:34:38;;;;;;;1.02;0.40;;;15.70;99.90;;;;;;4994577;28;20317;-71
2022/10/02 04:37:23;;;;;;;2.17;0.50;;;15.90;99.90;;;;;;4995166;28;20022;-70
2022/10/02 04:40:23;;;;;;;1.42;0.52;;;16.00;99.90;;;;;;4996916;28;20022;-71
2022/10/02 04:42:58;;;;;;;0.85;0.30;;;16.10;99.90;;;;;;4989163;28;20074;-71
2022/10/02 04:45:47;;;;;;;0.52;0.20;;;16.20;99.90;;;;;;4996641;28;20030;-71
2022/10/02 04:48:20;;;;;;;3.60;0.55;;;16.20;99.90;;;;;;4997114;28;20077;-71
2022/10/02 04:50:50;;;;;;;0.73;0.43;;;16.40;99.90;;;;;;4996128;28;20080;-70
2022/10/02 04:54:03;;;;;;;0.57;0.20;;;16.40;99.90;;;;;;4995223;28;20050;-71
2022/10/02 04:56:45;;;;;;;0.82;0.25;;;16.40;99.90;;;;;;4996168;28;20393;-71
2022/10/02 04:59:19;;;;;;;0.20;0.13;;;16.40;99.90;;;;;;4996720;28;20026;-71
2022/10/02 05:02:05;;;;;;;1.87;0.60;;;16.40;99.90;;;;;;4996085;28;20467;-70
2022/10/02 05:04:32;;;;;;;0.47;0.20;;;16.10;99.90;;;;;;4996158;28;20307;-71
2022/10/02 05:07:18;;;;;;;0.80;0.38;;;15.80;99.90;;;;;;4996117;28;20487;-71
2022/10/02 05:10:24;;;;;;;1.42;0.20;;;15.80;99.90;;;;;;4996094;28;20026;-71
2022/10/02 05:13:09;;;;;;;1.17;0.55;;;15.70;99.90;;;;;;4996019;28;20097;-71
2022/10/02 05:15:49;;;;;;;1.50;0.43;;;15.80;99.90;;;;;;4995843;28;20032;-70
2022/10/02 05:18:40;;;;;;;1.88;0.20;;;15.80;99.90;;;;;;4996510;28;20026;-71
2022/10/02 05:21:58;;;;;;;0.70;0.20;;;15.70;99.90;;;;;;4995729;28;20022;-70
2022/10/02 05:24:36;;;;;;;2.08;0.40;;;15.50;99.90;;;;;;4983837;28;20558;-70
2022/10/02 05:27:41;;;;;;;1.30;0.30;;;15.30;99.90;;;;;;4996068;28;20030;-70
2022/10/02 05:30:13;;;;;;;1.73;0.68;;;15.20;99.90;;;;;;4995344;28;20054;-70
2022/10/02 05:33:01;;;;;;;1.00;0.20;;;15.00;99.90;;;;;;4995738;28;20073;-70
2022/10/02 05:35:44;;;;;;;1.23;0.30;;;15.00;99.90;;;;;;4995894;28;20084;-70
2022/10/02 05:38:22;;;;;;;2.47;0.30;;;15.00;99.90;;;;;;4995416;28;20045;-70
2022/10/02 05:41:34;;;;;;;0.43;0.32;;;15.00;99.90;;;;;;4995424;28;20026;-69
2022/10/02 05:44:28;;;;;;;0.95;0.20;;;14.90;99.90;;;;;;4973874;28;20068;-70
2022/10/02 05:47:00;;;;;;;2.75;0.40;;;14.90;99.90;;;;;;4979399;28;20030;-70
2022/10/02 05:49:35;;;;;;;0.93;0.30;;;14.90;99.90;;;;;;4995151;28;20379;-70
2022/10/02 05:52:18;;;;;;;0.85;0.30;;;14.90;99.90;;;;;;4995056;28;20026;-71
2022/10/02 05:55:09;;;;;;;0.45;0.25;;;14.90;99.90;;;;;;4995183;28;20103;-70
2022/10/02 05:57:41;;;;;;;0.80;0.30;;;15.00;99.90;;;;;;4994271;28;20041;-70
2022/10/02 06:00:37;;;;;;;2.20;0.10;;;14.90;99.90;;;;;;4995019;28;20065;-70
2022/10/02 06:03:19;;;;;;;0.40;0.30;;;14.90;99.90;;;;;;4994963;28;20113;-71
2022/10/02 06:06:01;;;;;;;1.30;0.25;;;14.90;99.90;;;;;;4994902;28;20023;-70
2022/10/02 06:08:47;;;;;;;0.35;0.20;;;14.80;99.90;;;;;;4994915;28;20033;-71
2022/10/02 06:11:28;;;;;;;0.75;0.40;;;14.70;99.90;;;;;;4994792;28;20434;-71
2022/10/02 06:14:11;;;;;;;1.85;0.35;;;14.70;99.90;;;;;;4994906;28;20555;-71
2022/10/02 06:16:55;;;;;;;0.50;0.50;;;14.60;99.90;;;;;;4994679;28;20030;-71
2022/10/02 06:20:00;;;;;;;1.67;0.45;;;14.60;99.90;;;;;;4994761;28;20064;-70
2022/10/02 06:22:56;;;;;;;5.25;0.35;;;14.70;99.90;;;;;;4994743;28;20058;-71
2022/10/02 06:25:46;;;;;;;0.60;0.30;;;14.60;99.90;;;;;;4994331;28;20545;-70
2022/10/02 06:28:20;;;;;;;0.30;0.25;;;14.50;99.90;;;;;;4994414;28;20027;-71
2022/10/02 06:31:10;;;;;;;0.40;0.35;;;14.50;99.90;;;;;;4994203;28;20054;-70
2022/10/02 06:33:38;;;;;;;1.33;0.35;;;14.50;99.90;;;;;;4989427;28;20121;-71
2022/10/02 06:36:24;;;;;;;3.67;0.47;;;14.60;99.90;;;;;;4994424;28;20026;-71
2022/10/02 06:39:10;;;;;;;1.33;0.30;;;14.60;99.90;;;;;;4994275;28;20031;-71
2022/10/02 06:42:12;;;;;;;0.55;0.30;;;14.50;99.90;;;;;;4994370;28;20486;-71
2022/10/02 06:44:49;;;;;;;2.67;0.35;;;14.50;99.90;;;;;;4994572;28;20061;-71
2022/10/02 06:47:35;;;;;;;6.70;0.52;;;14.40;99.90;;;;;;4994626;28;20344;-71
2022/10/02 06:50:02;;;;;;;;;;;14.40;99.90;;;;;;4994701;28;20105;-71
2022/10/02 06:52:42;;;;;;;0.52;0.35;;;14.40;99.90;;;;;;4994239;28;19906;-70
2022/10/02 06:55:41;;;;;;;0.88;0.28;;;14.40;99.90;;;;;;4994447;28;20019;-70
2022/10/02 06:58:15;;;;;;;1.88;0.40;;;14.30;99.90;;;;;;4992736;28;20037;-70
2022/10/02 07:01:13;;;;;;;1.98;0.55;;;14.30;99.90;;;;;;4994091;28;20543;-71
2022/10/02 07:03:52;;;;;;;2.05;0.57;;;14.20;99.90;;;;;;4994032;28;20046;-71
2022/10/02 07:06:34;;;;;;;4.57;0.60;;;14.10;99.90;;;;;;4994649;28;20077;-70
2022/10/02 07:09:05;;;;;;;2.15;0.40;;;14.10;99.90;;;;;;4994001;28;20040;-71
2022/10/02 07:11:41;;;;;;;0.73;0.38;;;14.00;99.90;;;;;;4994045;28;20026;-70
2022/10/02 07:14:27;;;;;;;0.75;0.40;;;14.00;99.90;;;;;;4994121;28;20088;-70
2022/10/02 07:17:22;;;;;;;2.17;0.60;;;14.00;99.90;;;;;;4994407;28;20379;-70
2022/10/02 07:19:50;;;;;;;1.20;0.30;;;14.00;99.90;;;;;;4993957;28;20080;-70
2022/10/02 07:22:38;;;;;;;0.98;0.40;;;14.00;99.90;;;;;;4993987;28;20030;-70
2022/10/02 07:25:21;;;;;;;2.28;0.52;;;13.90;99.90;;;;;;4992768;28;20423;-70
2022/10/02 07:27:58;;;;;;;4.18;0.93;;;13.80;99.90;;;;;;4994068;28;20054;-72
2022/10/02 07:30:29;;;;;;;1.17;0.57;;;13.80;99.90;;;;;;4993338;28;20046;-71
2022/10/02 07:33:51;;;;;;;1.25;0.22;;;13.70;99.90;;;;;;4993682;28;20022;-72
2022/10/02 07:36:37;;;;;;;2.72;0.70;;;13.60;99.90;;;;;;4972200;28;20081;-70
2022/10/02 07:39:35;;;;;;;1.85;0.60;;;13.50;99.90;;;;;;4993344;28;20379;-69
2022/10/02 07:42:09;;;;;;;0.82;0.38;;;13.40;99.90;;;;;;4993638;28;20022;-69
2022/10/02 07:44:43;;;;;;;2.53;0.32;;;13.30;99.90;;;;;;4991875;28;20038;-69
2022/10/02 07:47:29;;;;;;;4.13;0.60;;;13.20;99.90;;;;;;4993378;28;20022;-69
2022/10/02 07:50:14;;;;;;;2.28;0.55;;;13.20;99.90;;;;;;4986849;28;20383;-69
2022/10/02 07:52:45;;;;;;;1.08;0.47;;;13.20;99.90;;;;;;4995354;28;20554;-69
2022/10/02 07:55:15;;;;;;;0.95;0.45;;;13.10;99.90;;;;;;4995458;28;20053;-69
2022/10/02 07:58:05;;;;;;;3.20;0.60;;;13.10;99.90;;;;;;4995475;28;20556;-69
2022/10/02 08:00:47;;;;;;;1.88;0.50;;;13.00;99.90;;;;;;4993719;28;20022;-69
2022/10/02 08:03:31;;;;;;;4.40;0.73;;;12.90;99.90;;;;;;4990169;28;20023;-69
2022/10/02 08:06:00;;;;;;;2.17;0.80;;;12.90;99.90;;;;;;4984215;28;20472;-69
2022/10/02 08:08:48;;;;;;;1.95;0.43;;;12.80;99.90;;;;;;4989971;28;20030;-69
2022/10/02 08:11:37;;;;;;;5.07;0.68;;;12.80;99.90;;;;;;4991119;28;20022;-69
2022/10/02 08:14:19;;;;;;;4.75;0.50;;;12.70;99.90;;;;;;4990385;28;20409;-70
2022/10/02 08:16:50;;;;;;;3.13;0.40;;;12.70;99.90;;;;;;4989632;28;20494;-69
2022/10/02 08:19:25;;;;;;;0.95;0.30;;;12.70;99.90;;;;;;4986809;28;20015;-69
2022/10/02 08:22:15;;;;;;;1.55;0.65;;;12.60;99.90;;;;;;4985882;28;20046;-69
2022/10/02 08:24:56;;;;;;;2.65;0.82;;;12.50;99.90;;;;;;4987682;28;20038;-69
2022/10/02 08:27:53;;;;;;;2.63;0.95;;;12.60;99.90;;;;;;4987356;28;20046;-70
2022/10/02 08:30:21;;;;;;;2.67;0.60;;;12.50;99.90;;;;;;4984610;28;20511;-69
2022/10/02 08:32:48;;;;;;;2.95;0.85;;;12.40;99.90;;;;;;4976711;28;20055;-69
2022/10/02 08:35:18;;;;;;;1.25;0.55;;;12.30;99.90;;;;;;4976659;28;20033;-69
2022/10/02 08:37:49;;;;;;;1.70;0.70;;;12.30;99.90;;;;;;4977030;28;20034;-69
2022/10/02 08:40:23;;;;;;;2.55;0.80;;;12.30;99.90;;;;;;4979216;28;20026;-69
2022/10/02 08:43:29;;;;;;;1.45;0.45;;;12.30;99.90;;;;;;4983985;28;20058;-69
2022/10/02 08:46:09;;;;;;;1.70;0.82;;;12.30;99.90;;;;;;4936440;28;20039;-69
2022/10/02 08:49:07;;;;;;;1.58;0.73;;;12.30;99.90;;;;;;4978467;28;20158;-69
2022/10/02 08:51:56;;;;;;;3.55;0.80;;;12.20;99.90;;;;;;4978213;28;20030;-69
2022/10/02 08:54:52;;;;;;;2.05;0.82;;;12.10;99.90;;;;;;4980506;28;20050;-69
2022/10/02 08:57:51;;;;;;;1.17;0.60;;;12.00;99.90;;;;;;4983216;28;20034;-70
2022/10/02 09:00:24;;;;;;;1.92;1.10;;;11.90;99.90;;;;;;4984662;28;20476;-69
2022/10/02 09:03:28;;;;;;;4.18;1.10;;;11.90;99.90;;;;;;4986712;28;20435;-72
2022/10/02 09:06:26;;;;;;;2.72;1.73;;;11.90;99.90;;;;;;4984934;28;20050;-73
2022/10/02 09:09:21;;;;;;;7.35;1.75;;;11.80;99.90;;;;;;4988243;28;20027;-74
2022/10/02 09:12:09;;;;;;;4.07;1.13;;;11.80;99.90;;;;;;4978036;28;20030;-75
2022/10/02 09:15:09;;;;;;;3.28;0.68;;;11.70;99.90;;;;;;4981074;28;20034;-71
2022/10/02 09:18:30;;;;;;;2.58;0.50;;;11.60;99.90;;;;;;4976448;28;20030;-75
2022/10/02 09:21:18;;;;;;;4.43;0.57;;;11.60;99.90;;;;;;4934059;29;20036;-71
2022/10/02 09:24:23;;;;;;;4.07;0.60;;;11.60;99.90;;;;;;4986456;28;20034;-73
2022/10/02 09:27:25;;;;;;;2.05;0.77;;;11.60;99.90;;;;;;4979898;28;20035;-71
2022/10/02 09:29:59;;;;;;;0.68;0.40;;;11.60;99.90;;;;;;4939758;28;20495;-72
2022/10/02 09:32:51;;;;;;;5.07;0.73;;;11.60;99.90;;;;;;4986325;28;20078;-70
2022/10/02 09:36:03;;;;;;;1.27;0.70;;;11.60;99.90;;;;;;4981992;28;20018;-71
2022/10/02 09:38:41;;;;;;;1.20;0.60;;;11.60;99.90;;;;;;4961473;28;20506;-72
2022/10/02 09:41:29;;;;;;;1.65;0.80;;;11.50;99.90;;;;;;4976616;28;20042;-71
2022/10/02 09:44:33;;;;;;;2.65;0.98;;;11.50;99.90;;;;;;4978654;28;20030;-71
2022/10/02 09:47:09;;;;;;;4.88;0.82;;;11.50;99.90;;;;;;4976166;28;20022;-72
2022/10/02 09:49:56;;;;;;;1.13;0.57;;;11.50;99.90;;;;;;4975505;28;20022;-71
2022/10/02 09:53:13;;;;;;;1.30;0.82;;;11.40;99.90;;;;;;4985983;28;20502;-73
2022/10/02 09:56:03;;;;;;;;;;;11.30;99.90;;;;;;4982001;28;20438;-72
2022/10/02 09:58:37;;;;;;;1.95;0.50;;;11.30;99.90;;;;;;4992085;28;19905;-76
2022/10/02 10:01:35;;;;;;;1.70;0.77;;;11.30;99.90;;;;;;4982261;28;20018;-77
2022/10/02 10:04:21;;;;;;;1.10;0.77;;;11.40;99.90;;;;;;4976350;28;20117;-77
2022/10/02 10:07:22;;;;;;;1.67;0.50;;;11.20;99.90;;;;;;4976104;28;20027;-77
2022/10/02 10:10:05;;;;;;;2.80;0.77;;;11.10;99.90;;;;;;4979049;28;20015;-70
2022/10/02 10:13:02;;;;;;;1.45;0.60;;;11.10;99.90;;;;;;4977385;28;20375;-77
2022/10/02 10:16:12;;;;;;;3.08;1.40;;;11.10;99.90;;;;;;4978345;28;20143;-76
2022/10/02 10:18:49;;;;;;;4.93;1.90;;;11.10;99.90;;;;;;4990905;28;20073;-75
2022/10/02 10:21:32;;;;;;;3.53;2.30;;;11.10;99.90;;;;;;4991943;28;20023;-74
2022/10/02 10:24:32;;;;;;;3.90;1.48;;;11.10;99.90;;;;;;4983553;28;20399;-72
2022/10/02 10:27:09;;;;;;;0.98;0.60;;;11.10;99.90;;;;;;4971419;28;20407;-77
2022/10/02 10:29:52;;;;;;;1.65;0.80;;;11.10;99.90;;;;;;4977441;28;20142;-73
2022/10/02 10:32:32;;;;;;;33.25;25.42;;;11.10;99.90;;;;;;4975951;28;20490;-71
2022/10/02 10:35:18;;;;;;;73.95;52.22;;;11.10;99.90;;;;;;4991716;28;20027;-75
2022/10/02 10:41:20;;;;;;;14.68;11.07;;;11.00;99.90;;;;;;4985349;28;20073;-75
2022/10/02 10:44:14;;;;;;;11.10;7.32;;;10.90;99.90;;;;;;4991696;28;20025;-73
2022/10/02 10:47:07;;;;;;;6.03;3.53;;;10.80;99.90;;;;;;4980050;28;20029;-71
2022/10/02 10:50:01;;;;;;;3.92;2.85;;;10.80;99.90;;;;;;4983593;28;20035;-71
2022/10/02 10:52:40;;;;;;;4.30;1.02;;;10.80;99.90;;;;;;4988800;28;20045;-68
2022/10/02 10:55:18;;;;;;;2.88;1.10;;;10.80;99.90;;;;;;4987986;28;20061;-71
2022/10/02 10:57:55;;;;;;;2.40;1.23;;;10.80;99.90;;;;;;4990396;28;20361;-70
2022/10/02 11:00:42;;;;;;;2.58;0.90;;;10.80;99.90;;;;;;4991355;28;20065;-74
2022/10/02 11:03:22;;;;;;;2.05;0.70;;;10.80;99.90;;;;;;4989580;28;20026;-74
2022/10/02 11:06:02;;;;;;;2.67;1.30;;;10.80;99.90;;;;;;4991304;28;20046;-73
2022/10/02 11:08:53;;;;;;;4.15;1.33;;;10.80;99.90;;;;;;4982158;28;20023;-74
2022/10/02 11:11:57;;;;;;;0.82;0.52;;;10.80;99.90;;;;;;4984279;28;20069;-73
2022/10/02 11:14:54;;;;;;;1.40;0.70;;;10.80;99.90;;;;;;4978797;28;20034;-69
2022/10/02 11:17:47;;;;;;;2.10;0.68;;;10.80;99.90;;;;;;4983842;28;20073;-70
2022/10/02 11:20:40;;;;;;;1.83;1.05;;;10.80;99.90;;;;;;4982961;28;20468;-73
2022/10/02 11:23:35;;;;;;;4.35;1.20;;;10.80;99.90;;;;;;4984541;28;20030;-70
2022/10/02 11:26:17;;;;;;;1.85;0.75;;;10.90;99.90;;;;;;4988264;28;20034;-74
2022/10/02 11:29:03;;;;;;;2.15;0.50;;;10.80;99.90;;;;;;4987067;28;20034;-73
2022/10/02 11:31:42;;;;;;;1.08;0.77;;;10.80;99.90;;;;;;4988298;28;20467;-70
2022/10/02 11:34:42;;;;;;;2.17;0.80;;;10.80;99.90;;;;;;4988630;28;20098;-73
2022/10/02 11:37:30;;;;;;;3.63;1.15;;;10.80;99.90;;;;;;4988462;28;20018;-75
2022/10/02 11:40:30;;;;;;;1.90;0.80;;;10.80;99.90;;;;;;4987085;28;20424;-70
2022/10/02 11:43:12;;;;;;;2.60;1.15;;;10.80;99.90;;;;;;4986862;28;20484;-73
2022/10/02 11:46:27;;;;;;;2.88;1.10;;;10.70;99.90;;;;;;4987115;28;20070;-71
2022/10/02 11:49:19;;;;;;;3.03;1.38;;;10.60;99.90;;;;;;4951477;28;20034;-72
2022/10/02 11:52:04;;;;;;;2.47;1.00;;;10.60;99.90;;;;;;4987926;28;20019;-73
2022/10/02 11:54:54;;;;;;;3.30;1.02;;;10.70;99.90;;;;;;4988123;28;20113;-74
2022/10/02 11:57:51;;;;;;;2.40;0.73;;;10.70;99.90;;;;;;4987311;28;20046;-74
2022/10/02 12:00:25;;;;;;;2.17;0.70;;;10.60;99.90;;;;;;4986706;28;20391;-74
2022/10/02 12:03:14;;;;;;;0.85;0.52;;;10.60;99.90;;;;;;4986009;28;20138;-73
2022/10/02 12:06:15;;;;;;;1.85;0.40;;;10.60;99.90;;;;;;4985861;28;20037;-73
2022/10/02 12:09:20;;;;;;;0.50;0.30;;;10.60;99.90;;;;;;4987164;28;20062;-73
2022/10/02 12:12:00;;;;;;;2.22;0.50;;;10.70;99.90;;;;;;4980563;28;20434;-71
2022/10/02 12:14:41;;;;;;;3.47;0.70;;;10.70;99.90;;;;;;4979914;28;20691;-74
2022/10/02 12:17:52;;;;;;;2.53;0.55;;;10.70;99.90;;;;;;4975516;28;20023;-71
2022/10/02 12:29:24;;;;;;;1.63;0.75;;;10.70;99.90;;;;;;4994710;28;20036;-70
2022/10/02 12:32:09;;;;;;;0.38;0.30;;;10.80;99.90;;;;;;4994863;28;20441;-70
2022/10/02 12:34:43;;;;;;;4.07;0.47;;;10.80;99.90;;;;;;4995117;28;20555;-71
2022/10/02 12:37:36;;;;;;;2.15;0.43;;;10.80;99.90;;;;;;4996084;28;20027;-71
2022/10/02 12:40:23;;;;;;;1.92;0.52;;;10.80;99.90;;;;;;4996669;28;20030;-69
2022/10/02 12:43:25;;;;;;;2.63;0.90;;;10.80;99.90;;;;;;4996836;28;20026;-70
2022/10/02 12:45:57;;;;;;;1.00;0.60;;;10.80;99.90;;;;;;4996605;28;20027;-71
2022/10/02 12:48:34;;;;;;;2.15;0.93;;;10.80;99.90;;;;;;4996361;28;20527;-71
2022/10/02 12:51:27;;;;;;;3.30;1.52;;;10.80;99.90;;;;;;4996378;28;20026;-70
2022/10/02 12:53:55;;;;;;;0.60;0.40;;;10.80;99.90;;;;;;4986970;28;20042;-70
2022/10/02 12:56:35;;;;;;;1.73;0.68;;;10.80;99.90;;;;;;4996561;28;20423;-69
2022/10/02 12:59:12;;;;;;;0.85;0.52;;;10.70;99.90;;;;;;4994317;28;20125;-71
2022/10/02 13:02:34;;;;;;;3.20;0.95;;;10.70;99.90;;;;;;4996296;28;20030;-69
2022/10/02 13:05:45;;;;;;;1.90;0.40;;;10.70;99.90;;;;;;4935686;29;20420;-73
2022/10/02 13:08:26;;;;;;;0.75;0.55;;;10.70;99.90;;;;;;4981363;28;20057;-72
2022/10/02 13:11:12;;;;;;;1.65;0.43;;;10.70;99.90;;;;;;4996047;28;20065;-72
2022/10/02 13:13:57;;;;;;;;;;;10.70;99.90;;;;;;4996738;28;20357;-69
2022/10/02 13:16:35;;;;;;;2.55;0.40;;;10.70;99.90;;;;;;4996111;28;19910;-72
2022/10/02 13:19:29;;;;;;;1.02;0.45;;;10.70;99.90;;;;;;4994722;28;20037;-73
2022/10/02 13:22:30;;;;;;;0.68;0.30;;;10.70;99.90;;;;;;4996061;28;20101;-73
2022/10/02 13:25:34;;;;;;;3.65;0.40;;;10.60;99.90;;;;;;4995846;28;20137;-72
2022/10/02 13:28:21;;;;;;;1.20;0.40;;;10.60;99.90;;;;;;4996349;28;20018;-71
2022/10/02 13:31:25;;;;;;;1.33;0.55;;;10.50;99.90;;;;;;4994082;28;20046;-69
2022/10/02 13:34:05;;;;;;;1.13;0.70;;;10.50;99.90;;;;;;4995860;28;20105;-71
2022/10/02 13:36:45;;;;;;;0.95;0.82;;;10.50;99.90;;;;;;4996171;28;20026;-72
2022/10/02 13:39:26;;;;;;;1.67;0.57;;;10.60;99.90;;;;;;4995595;28;20391;-72
2022/10/02 13:42:00;;;;;;;0.65;0.38;;;10.60;99.90;;;;;;4995710;28;20364;-71
2022/10/02 13:44:53;;;;;;;0.50;0.50;;;10.60;99.90;;;;;;4995480;28;20030;-69
2022/10/02 13:47:26;;;;;;;1.70;0.75;;;10.60;99.90;;;;;;4995544;28;20476;-70
2022/10/02 13:49:57;;;;;;;4.68;1.10;;;10.50;99.90;;;;;;4995156;28;20475;-70
2022/10/02 13:52:34;;;;;;;2.20;1.40;;;10.40;99.90;;;;;;4995349;28;20043;-71
2022/10/02 13:55:16;;;;;;;2.15;1.25;;;10.40;99.90;;;;;;4995450;28;20092;-72
2022/10/02 13:58:11;;;;;;;4.05;1.08;;;10.40;99.90;;;;;;4995813;28;20034;-71
2022/10/02 14:00:44;;;;;;;0.93;0.65;;;10.30;99.90;;;;;;4995110;28;20022;-71
2022/10/02 14:03:15;;;;;;;1.85;0.80;;;10.30;99.90;;;;;;4994939;28;20101;-72
2022/10/02 14:05:45;;;;;;;1.88;0.75;;;10.20;99.90;;;;;;4995551;28;20058;-71
2022/10/02 14:08:31;;;;;;;0.85;0.63;;;10.20;99.90;;;;;;4995053;28;20072;-70
2022/10/02 14:11:12;;;;;;;1.48;0.77;;;10.20;99.90;;;;;;4994801;28;20475;-73
2022/10/02 14:14:03;;;;;;;2.47;1.00;;;10.20;99.90;;;;;;4995007;28;20026;-73
2022/10/02 14:16:54;;;;;;;3.70;1.38;;;10.20;99.90;;;;;;4994856;28;20019;-72
2022/10/02 14:19:38;;;;;;;3.08;1.08;;;10.20;99.90;;;;;;4994910;28;20030;-73
2022/10/02 14:22:27;;;;;;;3.45;1.00;;;10.20;99.90;;;;;;4994967;28;20022;-72
2022/10/02 14:25:21;;;;;;;2.75;1.00;;;10.20;99.90;;;;;;4994670;28;20088;-72
2022/10/02 14:28:01;;;;;;;3.40;1.33;;;10.10;99.90;;;;;;4994685;28;20442;-72